createdAt,value
2022-10-17T00:01:29.459Z,15.22
2022-10-17T00:03:56.077Z,15.25
2022-10-17T00:06:22.695Z,15.29
2022-10-17T00:08:49.309Z,15.32
2022-10-17T00:11:20.630Z,15.32
2022-10-17T00:13:49.041Z,15.35
2022-10-17T00:16:23.681Z,15.35
2022-10-17T00:18:52.054Z,15.31
2022-10-17T00:21:21.080Z,15.33
2022-10-17T00:23:49.100Z,15.34
2022-10-17T00:26:17.890Z,15.34
2022-10-17T00:28:50.746Z,15.31
2022-10-17T00:31:20.726Z,15.32
2022-10-17T00:33:49.777Z,15.34
2022-10-17T00:36:19.755Z,15.33
2022-10-17T00:38:48.006Z,15.34
2022-10-17T00:41:17.087Z,15.34
2022-10-17T00:46:30.634Z,15.31
2022-10-17T00:48:59.031Z,15.13
2022-10-17T00:51:33.738Z,15.25
2022-10-17T00:54:01.723Z,15.24
2022-10-17T00:56:28.575Z,15.24
2022-10-17T00:58:55.913Z,15.21
2022-10-17T01:01:22.579Z,15.22
2022-10-17T01:03:49.282Z,15.22
2022-10-17T01:06:15.893Z,15.16
2022-10-17T01:08:42.658Z,15.16
2022-10-17T01:11:27.424Z,15.12
2022-10-17T01:14:07.773Z,15.11
2022-10-17T01:16:44.928Z,15.10
2022-10-17T01:19:43.701Z,15.02
2022-10-17T01:30:35.368Z,15.03
2022-10-17T01:36:10.726Z,14.97
2022-10-17T01:38:47.381Z,14.97
2022-10-17T01:46:41.445Z,14.96
2022-10-17T01:49:11.188Z,14.98
2022-10-17T01:51:47.897Z,14.97
2022-10-17T01:54:27.963Z,14.96
2022-10-17T01:57:01.532Z,15.01
2022-10-17T01:59:38.941Z,15.01
2022-10-17T02:02:07.428Z,15.00
2022-10-17T02:04:35.371Z,15.01
2022-10-17T02:07:11.154Z,15.03
2022-10-17T02:09:38.534Z,15.06
2022-10-17T02:17:58.089Z,15.04
2022-10-17T02:20:40.612Z,15.08
2022-10-17T02:25:54.071Z,15.10
2022-10-17T02:33:49.465Z,15.12
2022-10-17T02:36:21.518Z,15.13
2022-10-17T02:38:50.571Z,15.14
2022-10-17T02:41:19.073Z,15.15
2022-10-17T02:43:48.912Z,15.15
2022-10-17T02:46:21.237Z,15.14
2022-10-17T02:48:53.673Z,15.12
2022-10-17T02:51:37.085Z,15.09
2022-10-17T02:54:28.303Z,15.05
2022-10-17T02:57:02.927Z,15.08
2022-10-17T03:02:06.133Z,15.09
2022-10-17T03:04:33.591Z,15.10
2022-10-17T03:07:00.333Z,15.12
2022-10-17T03:09:27.387Z,15.10
2022-10-17T03:11:54.016Z,15.11
2022-10-17T03:14:20.579Z,15.12
2022-10-17T03:16:47.129Z,15.11
2022-10-17T03:19:13.931Z,15.11
2022-10-17T03:21:40.577Z,15.12
2022-10-17T03:24:07.663Z,15.12
2022-10-17T03:26:34.436Z,15.13
2022-10-17T03:29:01.028Z,15.16
2022-10-17T03:31:27.562Z,15.16
2022-10-17T03:33:54.190Z,15.18
2022-10-17T03:36:20.990Z,15.16
2022-10-17T03:38:48.334Z,15.19
2022-10-17T03:41:15.053Z,15.17
2022-10-17T03:43:41.614Z,15.15
2022-10-17T03:46:08.261Z,15.18
2022-10-17T03:48:35.065Z,15.20
2022-10-17T03:51:05.085Z,15.22
2022-10-17T03:53:32.384Z,15.23
2022-10-17T03:56:10.094Z,15.22
2022-10-17T03:58:36.805Z,15.24
2022-10-17T04:01:06.257Z,15.27
2022-10-17T04:03:33.229Z,15.26
2022-10-17T04:06:01.055Z,15.25
2022-10-17T04:08:28.426Z,15.24
2022-10-17T04:11:05.132Z,15.13
2022-10-17T04:13:32.785Z,15.11
2022-10-17T04:16:02.559Z,15.05
2022-10-17T04:18:29.316Z,14.94
2022-10-17T04:20:55.899Z,14.83
2022-10-17T04:23:23.007Z,14.70
2022-10-17T04:25:49.572Z,14.61
2022-10-17T04:28:16.250Z,14.51
2022-10-17T04:30:45.134Z,14.45
2022-10-17T04:33:12.230Z,14.39
2022-10-17T04:35:38.869Z,14.32
2022-10-17T04:38:05.403Z,14.24
2022-10-17T04:40:31.989Z,14.18
2022-10-17T04:42:58.538Z,14.12
2022-10-17T04:45:25.093Z,14.08
2022-10-17T04:47:51.625Z,14.05
2022-10-17T04:50:18.460Z,14.01
2022-10-17T04:52:45.165Z,13.95
2022-10-17T04:55:11.719Z,13.94
2022-10-17T04:57:38.312Z,13.92
2022-10-17T05:00:05.380Z,13.92
2022-10-17T05:02:32.141Z,13.83
2022-10-17T05:04:58.853Z,13.86
2022-10-17T05:07:25.446Z,13.84
2022-10-17T05:09:51.982Z,13.81
2022-10-17T05:12:18.613Z,13.80
2022-10-17T05:14:45.229Z,13.78
2022-10-17T05:17:11.841Z,13.77
2022-10-17T05:19:38.412Z,13.75
2022-10-17T05:22:04.957Z,13.77
2022-10-17T05:24:31.478Z,13.75
2022-10-17T05:26:58.088Z,13.74
2022-10-17T05:29:24.681Z,13.74
2022-10-17T05:31:51.328Z,13.75
2022-10-17T05:34:17.964Z,13.74
2022-10-17T05:36:44.603Z,13.74
2022-10-17T05:39:14.850Z,13.74
2022-10-17T05:41:41.457Z,13.73
2022-10-17T05:44:08.058Z,13.73
2022-10-17T05:46:34.644Z,13.72
2022-10-17T05:49:01.153Z,13.71
2022-10-17T05:51:27.790Z,13.70
2022-10-17T05:53:54.442Z,13.68
2022-10-17T05:56:20.943Z,13.66
2022-10-17T05:58:50.392Z,13.65
2022-10-17T06:01:18.898Z,13.61
2022-10-17T06:03:45.468Z,13.61
2022-10-17T06:06:14.041Z,13.61
2022-10-17T06:08:40.699Z,13.59
2022-10-17T06:11:10.027Z,13.56
2022-10-17T06:13:37.371Z,13.41
2022-10-17T06:16:03.993Z,13.52
2022-10-17T06:18:30.798Z,13.52
2022-10-17T06:21:07.806Z,13.51
2022-10-17T06:23:34.712Z,13.53
2022-10-17T06:26:02.954Z,13.53
2022-10-17T06:28:30.129Z,13.54
2022-10-17T06:30:57.250Z,13.55
2022-10-17T06:33:23.921Z,13.55
2022-10-17T06:35:53.469Z,13.56
2022-10-17T06:38:20.475Z,13.57
2022-10-17T06:40:47.148Z,13.58
2022-10-17T06:43:14.096Z,13.60
2022-10-17T06:45:40.957Z,13.59
2022-10-17T06:48:08.055Z,13.60
2022-10-17T06:50:35.093Z,13.64
2022-10-17T06:53:01.664Z,13.67
2022-10-17T06:55:28.266Z,13.69
2022-10-17T06:57:56.433Z,13.73
2022-10-17T07:00:23.589Z,13.74
2022-10-17T07:02:50.646Z,13.76
2022-10-17T07:05:19.642Z,13.78
2022-10-17T07:07:49.601Z,13.81
2022-10-17T07:10:17.628Z,13.84
2022-10-17T07:12:46.027Z,13.87
2022-10-17T07:15:13.163Z,13.89
2022-10-17T07:17:39.845Z,13.91
2022-10-17T07:20:07.188Z,13.93
2022-10-17T07:22:33.830Z,13.95
2022-10-17T07:25:00.385Z,13.95
2022-10-17T07:27:27.292Z,13.97
2022-10-17T07:29:54.174Z,13.98
2022-10-17T07:32:21.121Z,13.97
2022-10-17T07:34:47.717Z,13.98
2022-10-17T07:37:14.399Z,14.00
2022-10-17T07:39:41.000Z,14.07
2022-10-17T07:42:07.863Z,14.09
2022-10-17T07:44:35.582Z,14.10
2022-10-17T07:47:02.407Z,14.07
2022-10-17T07:49:29.476Z,14.07
2022-10-17T07:51:56.083Z,14.07
2022-10-17T07:54:23.284Z,14.07
2022-10-17T07:56:50.912Z,14.08
2022-10-17T07:59:19.384Z,14.12
2022-10-17T08:01:46.181Z,14.16
2022-10-17T08:04:13.124Z,14.21
2022-10-17T08:06:39.962Z,14.26
2022-10-17T08:09:06.726Z,14.33
2022-10-17T08:11:33.459Z,14.41
2022-10-17T08:14:00.135Z,14.51
2022-10-17T08:16:26.742Z,14.63
2022-10-17T08:18:53.911Z,14.79
2022-10-17T08:21:20.941Z,14.95
2022-10-17T08:23:47.565Z,15.11
2022-10-17T08:26:17.294Z,15.32
2022-10-17T08:28:44.451Z,15.51
2022-10-17T08:31:15.088Z,15.68
2022-10-17T08:33:42.275Z,16.00
2022-10-17T08:36:09.735Z,16.44
2022-10-17T08:38:38.472Z,16.88
2022-10-17T08:46:47.005Z,16.92
2022-10-17T08:49:23.349Z,16.85
2022-10-17T08:51:58.081Z,16.84
2022-10-17T08:54:43.005Z,16.93
2022-10-17T08:57:14.103Z,17.28
2022-10-17T08:59:42.115Z,17.69
2022-10-17T09:05:30.504Z,18.89
2022-10-17T09:08:09.209Z,19.68
2022-10-17T09:13:46.546Z,21.00
2022-10-17T09:19:02.028Z,21.48
2022-10-17T09:24:15.777Z,20.87
2022-10-17T09:26:45.547Z,21.04
2022-10-17T09:29:20.661Z,21.71
2022-10-17T09:32:10.339Z,22.63
2022-10-17T09:34:37.023Z,23.33
2022-10-17T09:37:03.765Z,23.92
2022-10-17T09:39:33.020Z,24.15
2022-10-17T09:42:01.723Z,24.36
2022-10-17T09:49:42.887Z,25.26
2022-10-17T09:52:18.630Z,25.73
2022-10-17T09:54:48.457Z,26.07
2022-10-17T09:57:17.091Z,26.23
2022-10-17T10:02:24.739Z,26.32
2022-10-17T10:07:31.031Z,26.50
2022-10-17T10:09:59.117Z,26.47
2022-10-17T10:12:29.973Z,26.03
2022-10-17T10:14:57.777Z,25.56
2022-10-17T10:17:41.979Z,25.65
2022-10-17T10:25:56.337Z,24.24
2022-10-17T10:28:27.138Z,24.03
2022-10-17T10:30:55.580Z,23.64
2022-10-17T10:33:25.787Z,23.25
2022-10-17T10:35:57.387Z,22.91
2022-10-17T10:38:24.716Z,22.60
2022-10-17T10:40:56.018Z,22.28
2022-10-17T10:43:46.727Z,21.96
2022-10-17T10:54:32.004Z,21.42
2022-10-17T10:57:03.490Z,21.37
2022-10-17T11:05:19.527Z,20.97
2022-10-17T11:07:53.510Z,20.90
2022-10-17T11:10:35.786Z,20.76
2022-10-17T11:15:51.638Z,20.57
2022-10-17T11:20:58.564Z,20.38
2022-10-17T11:26:11.388Z,20.20
2022-10-17T11:28:38.110Z,20.11
2022-10-17T11:31:11.694Z,20.04
2022-10-17T11:36:39.669Z,19.92
2022-10-17T11:39:14.704Z,19.91
2022-10-17T11:42:07.117Z,19.89
2022-10-17T11:44:37.271Z,19.84
2022-10-17T11:52:57.298Z,19.74
2022-10-17T11:55:27.900Z,19.67
2022-10-17T12:09:12.370Z,19.47
2022-10-17T12:25:35.787Z,19.14
2022-10-17T12:30:56.690Z,19.07
2022-10-17T12:49:38.287Z,18.98
2022-10-17T12:52:27.469Z,18.89
2022-10-17T13:00:20.147Z,19.31
2022-10-17T13:02:49.014Z,19.42
2022-10-17T13:05:27.112Z,19.50
2022-10-17T13:07:55.440Z,19.65
2022-10-17T13:13:04.501Z,19.92
2022-10-17T13:15:31.972Z,19.90
2022-10-17T13:18:00.647Z,19.80
2022-10-17T13:20:31.585Z,19.61
2022-10-17T13:22:59.208Z,19.42
2022-10-17T13:25:27.412Z,19.31
2022-10-17T13:28:05.678Z,19.22
2022-10-17T13:30:37.152Z,19.18
2022-10-17T13:33:04.244Z,19.14
2022-10-17T13:38:28.497Z,19.02
2022-10-17T13:41:01.970Z,18.99
2022-10-17T13:43:43.141Z,19.00
2022-10-17T13:46:36.932Z,18.99
2022-10-17T13:49:32.372Z,18.88
2022-10-17T13:52:00.768Z,18.88
2022-10-17T13:59:58.979Z,18.73
2022-10-17T14:02:29.234Z,18.71
2022-10-17T14:10:21.808Z,18.66
2022-10-17T14:12:51.066Z,18.63
2022-10-17T14:15:19.138Z,18.57
2022-10-17T14:17:46.934Z,18.53
2022-10-17T14:29:20.698Z,18.34
2022-10-17T14:31:50.773Z,18.36
2022-10-17T14:34:24.518Z,18.32
2022-10-17T14:36:53.030Z,18.29
2022-10-17T14:39:23.473Z,18.26
2022-10-17T14:41:51.708Z,18.22
2022-10-17T14:44:28.747Z,18.17
2022-10-17T14:47:18.201Z,18.17
2022-10-17T14:49:51.980Z,18.08
2022-10-17T14:54:53.971Z,18.04
2022-10-17T15:00:00.105Z,17.96
2022-10-17T15:02:29.892Z,17.93
2022-10-17T15:04:57.820Z,17.87
2022-10-17T15:07:25.134Z,17.82
2022-10-17T15:09:53.687Z,17.79
2022-10-17T15:12:25.628Z,17.76
2022-10-17T15:14:53.126Z,17.73
2022-10-17T15:17:24.368Z,17.68
2022-10-17T15:19:51.703Z,17.64
2022-10-17T15:22:18.747Z,17.62
2022-10-17T15:24:46.472Z,17.57
2022-10-17T15:27:18.046Z,17.53
2022-10-17T15:29:46.082Z,17.50
2022-10-17T15:32:12.939Z,17.42
2022-10-17T15:34:39.941Z,17.39
2022-10-17T15:37:14.573Z,17.34
2022-10-17T15:39:41.286Z,17.28
2022-10-17T15:42:12.413Z,17.25
2022-10-17T15:44:40.622Z,17.21
2022-10-17T15:47:15.429Z,17.18
2022-10-17T15:49:42.458Z,17.13
2022-10-17T15:52:09.274Z,17.08
2022-10-17T15:54:36.072Z,17.03
2022-10-17T15:57:02.699Z,16.95
2022-10-17T15:59:33.554Z,16.93
2022-10-17T16:02:00.168Z,16.89
2022-10-17T16:04:27.707Z,16.84
2022-10-17T16:06:55.116Z,16.79
2022-10-17T16:09:21.882Z,16.77
2022-10-17T16:11:48.543Z,16.72
2022-10-17T16:14:18.248Z,16.67
2022-10-17T16:16:44.821Z,16.43
2022-10-17T16:19:11.936Z,16.58
2022-10-17T16:21:41.089Z,16.56
2022-10-17T16:24:12.226Z,16.55
2022-10-17T16:26:39.795Z,16.51
2022-10-17T16:29:06.491Z,16.46
2022-10-17T16:31:35.904Z,16.41
2022-10-17T16:34:04.444Z,16.39
2022-10-17T16:36:31.145Z,16.36
2022-10-17T16:38:57.927Z,16.30
2022-10-17T16:41:40.305Z,16.20
2022-10-17T16:44:10.625Z,16.20
2022-10-17T16:46:38.082Z,16.13
2022-10-17T16:49:05.492Z,16.08
2022-10-17T16:51:34.046Z,16.00
2022-10-17T16:54:00.722Z,15.93
2022-10-17T16:56:32.709Z,15.88
2022-10-17T16:59:00.715Z,15.83
2022-10-17T17:01:29.449Z,15.78
2022-10-17T17:03:56.777Z,15.73
2022-10-17T17:06:26.754Z,15.67
2022-10-17T17:08:54.490Z,15.61
2022-10-17T17:11:23.626Z,15.58
2022-10-17T17:13:50.349Z,15.52
2022-10-17T17:16:21.516Z,15.48
2022-10-17T17:18:51.409Z,15.42
2022-10-17T17:21:17.959Z,15.37
2022-10-17T17:23:44.806Z,15.32
2022-10-17T17:26:14.348Z,15.29
2022-10-17T17:28:41.894Z,15.23
2022-10-17T17:31:10.786Z,15.18
2022-10-17T17:33:39.454Z,15.10
2022-10-17T17:36:06.745Z,15.06
2022-10-17T17:38:35.909Z,15.02
2022-10-17T17:41:03.984Z,14.97
2022-10-17T17:43:30.888Z,14.92
2022-10-17T17:45:57.663Z,14.87
2022-10-17T17:48:24.251Z,14.82
2022-10-17T17:50:50.936Z,14.78
2022-10-17T17:53:18.257Z,14.73
2022-10-17T17:55:45.178Z,14.69
2022-10-17T17:58:12.632Z,14.63
2022-10-17T18:00:40.652Z,14.60
2022-10-17T18:03:07.804Z,14.55
2022-10-17T18:05:34.446Z,14.52
2022-10-17T18:08:01.030Z,14.47
2022-10-17T18:10:29.397Z,14.43
2022-10-17T18:12:56.053Z,14.39
2022-10-17T18:15:22.932Z,14.35
2022-10-17T18:17:49.730Z,14.31
2022-10-17T18:20:16.347Z,14.24
2022-10-17T18:22:42.988Z,14.21
2022-10-17T18:25:09.966Z,14.17
2022-10-17T18:27:36.783Z,14.12
2022-10-17T18:30:04.244Z,14.09
2022-10-17T18:32:32.495Z,14.05
2022-10-17T18:34:59.269Z,14.00
2022-10-17T18:37:26.045Z,13.95
2022-10-17T18:39:55.320Z,13.91
2022-10-17T18:42:21.959Z,13.87
2022-10-17T18:44:48.918Z,13.80
2022-10-17T18:47:16.172Z,13.77
2022-10-17T18:49:42.992Z,13.71
2022-10-17T18:52:09.588Z,13.68
2022-10-17T18:54:36.341Z,13.65
2022-10-17T18:57:03.022Z,13.58
2022-10-17T18:59:29.725Z,13.54
2022-10-17T19:01:56.352Z,13.51
2022-10-17T19:04:23.873Z,13.46
2022-10-17T19:06:50.442Z,13.41
2022-10-17T19:09:17.353Z,13.37
2022-10-17T19:11:44.159Z,13.33
2022-10-17T19:14:13.545Z,13.31
2022-10-17T19:16:43.900Z,13.28
2022-10-17T19:19:15.058Z,13.25
2022-10-17T19:21:42.564Z,13.21
2022-10-17T19:24:13.466Z,13.15
2022-10-17T19:26:40.750Z,13.13
2022-10-17T19:29:07.864Z,13.09
2022-10-17T19:31:39.880Z,13.06
2022-10-17T19:34:06.459Z,13.03
2022-10-17T19:36:35.044Z,12.99
2022-10-17T19:39:05.677Z,12.96
2022-10-17T19:41:32.990Z,12.92
2022-10-17T19:44:00.614Z,12.90
2022-10-17T19:46:28.596Z,12.85
2022-10-17T19:48:55.511Z,12.84
2022-10-17T19:51:24.661Z,12.80
2022-10-17T19:53:52.421Z,12.78
2022-10-17T19:56:21.120Z,12.77
2022-10-17T19:58:48.792Z,12.74
2022-10-17T20:01:19.162Z,12.72
2022-10-17T20:03:46.543Z,12.71
2022-10-17T20:06:13.963Z,12.70
2022-10-17T20:08:40.849Z,12.68
2022-10-17T20:11:10.570Z,12.67
2022-10-17T20:13:37.886Z,12.65
2022-10-17T20:16:06.238Z,12.63
2022-10-17T20:18:33.725Z,12.62
2022-10-17T20:21:06.345Z,12.57
2022-10-17T20:23:33.183Z,12.57
2022-10-17T20:26:08.649Z,12.55
2022-10-17T20:28:46.206Z,12.52
2022-10-17T20:31:13.499Z,12.50
2022-10-17T20:33:41.527Z,12.48
2022-10-17T20:36:13.030Z,12.46
2022-10-17T20:38:39.814Z,12.44
2022-10-17T20:41:09.431Z,12.40
2022-10-17T20:43:36.943Z,12.39
2022-10-17T20:46:21.878Z,12.37
2022-10-17T20:48:53.434Z,12.33
2022-10-17T20:51:20.661Z,12.16
2022-10-17T20:53:48.440Z,12.26
2022-10-17T20:56:26.937Z,12.21
2022-10-17T20:58:56.784Z,12.23
2022-10-17T21:01:24.336Z,12.19
2022-10-17T21:03:51.310Z,12.17
2022-10-17T21:06:18.870Z,12.16
2022-10-17T21:08:47.027Z,12.16
2022-10-17T21:11:17.255Z,12.15
2022-10-17T21:13:44.749Z,12.12
2022-10-17T21:16:17.195Z,12.10
2022-10-17T21:18:44.547Z,12.07
2022-10-17T21:23:49.535Z,12.02
2022-10-17T21:26:17.404Z,12.02
2022-10-17T21:28:45.615Z,11.99
2022-10-17T21:31:27.823Z,11.92
2022-10-17T21:33:57.295Z,11.94
2022-10-17T21:36:25.469Z,11.93
2022-10-17T21:38:53.535Z,11.91
2022-10-17T21:41:23.085Z,11.89
2022-10-17T21:43:54.321Z,11.86
2022-10-17T21:46:21.159Z,11.81
2022-10-17T21:48:48.692Z,11.78
2022-10-17T21:51:17.401Z,11.74
2022-10-17T21:53:44.693Z,11.69
2022-10-17T21:56:19.490Z,11.63
2022-10-17T21:58:46.802Z,11.59
2022-10-17T22:01:19.713Z,11.55
2022-10-17T22:03:48.797Z,11.51
2022-10-17T22:06:38.530Z,11.49
2022-10-17T22:09:07.157Z,11.45
2022-10-17T22:11:35.645Z,11.43
2022-10-17T22:14:06.389Z,11.39
2022-10-17T22:16:33.801Z,11.36
2022-10-17T22:19:05.896Z,11.35
2022-10-17T22:21:34.460Z,11.30
2022-10-17T22:24:07.239Z,11.28
2022-10-17T22:26:36.270Z,11.22
2022-10-17T22:29:04.430Z,11.16
2022-10-17T22:31:31.102Z,11.13
2022-10-17T22:33:57.784Z,11.08
2022-10-17T22:36:24.460Z,11.03
2022-10-17T22:38:51.100Z,10.98
2022-10-17T22:41:17.860Z,10.94
2022-10-17T22:43:44.568Z,10.90
2022-10-17T22:46:13.514Z,10.89
2022-10-17T22:48:40.427Z,10.87
2022-10-17T22:51:07.428Z,10.86
2022-10-17T22:53:35.177Z,10.85
2022-10-17T22:56:05.868Z,10.82
2022-10-17T22:58:35.686Z,10.79
2022-10-17T23:01:03.556Z,10.73
2022-10-17T23:03:31.913Z,10.68
2022-10-17T23:05:58.881Z,10.64
2022-10-17T23:08:26.083Z,10.62
2022-10-17T23:10:52.914Z,10.59
2022-10-17T23:13:21.262Z,10.56
2022-10-17T23:15:53.049Z,10.53
2022-10-17T23:18:19.947Z,10.52
2022-10-17T23:20:46.598Z,10.51
2022-10-17T23:23:13.499Z,10.50
2022-10-17T23:25:40.317Z,10.49
2022-10-17T23:28:08.797Z,10.46
2022-10-17T23:30:36.596Z,10.42
2022-10-17T23:33:04.063Z,10.37
2022-10-17T23:35:31.077Z,10.30
2022-10-17T23:37:57.913Z,10.25
2022-10-17T23:40:24.486Z,10.23
2022-10-17T23:42:51.108Z,10.19
2022-10-17T23:45:17.954Z,10.16
2022-10-17T23:47:44.598Z,10.12
2022-10-17T23:50:11.222Z,10.13
2022-10-17T23:52:38.026Z,10.11
2022-10-17T23:55:05.150Z,10.08
2022-10-17T23:57:32.180Z,10.06
2022-10-17T23:59:59.086Z,10.04
